Time;durP1;ratioP1;P1;durP2;ratioP2;P2;SDS_P1;SDS_P2;PMS_P1;PMS_P2;Temp;Humidity;BMP_temperature;BMP_pressure;BME280_temperature;BME280_humidity;BME280_pressure;Samples;Min_cycle;Max_cycle;Signal;HPM_P1;HPM_P2
2022/10/08 00:00:17;;;;;;;29.45;14.70;;;;;;;;;;8333560;28;20046;-88
2022/10/08 00:04:39;;;;;;;27.50;13.73;;;;;;;;;;8337371;28;20041;-89
2022/10/08 00:08:45;;;;;;;35.08;14.55;;;;;;;;;;8332917;28;20055;-88
2022/10/08 00:12:49;;;;;;;27.73;14.65;;;;;;;;;;8333986;28;20488;-89
2022/10/08 00:16:51;;;;;;;22.70;13.23;;;;;;;;;;8333534;28;20041;-88
2022/10/08 00:21:05;;;;;;;19.58;11.15;;;;;;;;;;8336786;28;20037;-89
2022/10/08 00:25:08;;;;;;;20.05;10.85;;;;;;;;;;8340201;28;20484;-88
2022/10/08 00:29:15;;;;;;;21.45;11.32;;;;;;;;;;8332031;28;20065;-90
2022/10/08 00:33:18;;;;;;;20.17;11.25;;;;;;;;;;8333181;28;20053;-89
2022/10/08 00:37:20;;;;;;;22.58;11.50;;;;;;;;;;8336699;28;20373;-87
2022/10/08 00:41:25;;;;;;;26.20;12.90;;;;;;;;;;8335552;28;20365;-89
2022/10/08 00:45:29;;;;;;;27.38;12.75;;;;;;;;;;8343389;28;20503;-90
2022/10/08 00:49:31;;;;;;;21.45;11.48;;;;;;;;;;8334226;28;20124;-88
2022/10/08 00:53:35;;;;;;;19.75;10.75;;;;;;;;;;8335468;28;20069;-89
2022/10/08 00:57:38;;;;;;;18.08;10.35;;;;;;;;;;8336521;28;20045;-88
2022/10/08 01:01:43;;;;;;;21.02;11.93;;;;;;;;;;8330293;28;20049;-89
2022/10/08 01:05:57;;;;;;;19.48;11.30;;;;;;;;;;8340705;28;20044;-88
2022/10/08 01:10:06;;;;;;;23.58;11.63;;;;;;;;;;8331824;28;20120;-89
2022/10/08 01:14:19;;;;;;;22.40;12.13;;;;;;;;;;8342305;28;20041;-90
2022/10/08 01:18:33;;;;;;;22.13;11.77;;;;;;;;;;8347610;28;20103;-87
2022/10/08 01:22:53;;;;;;;19.55;10.32;;;;;;;;;;8334181;28;20041;-87
2022/10/08 01:27:01;;;;;;;24.65;11.60;;;;;;;;;;8351154;28;20045;-89
2022/10/08 01:31:09;;;;;;;18.35;9.80;;;;;;;;;;8345362;28;20081;-88
2022/10/08 01:35:15;;;;;;;23.63;12.50;;;;;;;;;;8336775;28;20099;-88
2022/10/08 01:39:26;;;;;;;25.33;12.43;;;;;;;;;;8337597;28;20420;-88
2022/10/08 01:43:33;;;;;;;21.88;11.15;;;;;;;;;;8330292;28;20091;-89
2022/10/08 01:47:39;;;;;;;23.98;11.23;;;;;;;;;;8330583;28;20056;-88
2022/10/08 01:51:48;;;;;;;17.88;10.30;;;;;;;;;;8337441;28;20046;-88
2022/10/08 01:55:53;;;;;;;14.55;9.32;;;;;;;;;;8333337;28;20068;-89
2022/10/08 02:00:02;;;;;;;21.88;11.02;;;;;;;;;;8355186;28;20785;-89
2022/10/08 02:08:27;;;;;;;26.17;12.20;;;;;;;;;;8341770;28;20381;-88
2022/10/08 02:12:30;;;;;;;19.58;10.90;;;;;;;;;;8357819;28;20447;-88
2022/10/08 02:16:34;;;;;;;22.85;12.38;;;;;;;;;;8329698;28;20057;-89
2022/10/08 02:20:42;;;;;;;28.30;11.88;;;;;;;;;;8329733;28;20137;-88
2022/10/08 02:24:51;;;;;;;21.80;11.60;;;;;;;;;;8329496;28;20075;-88
2022/10/08 02:28:59;;;;;;;32.25;14.05;;;;;;;;;;8329456;28;20504;-88
2022/10/08 02:33:05;;;;;;;22.52;12.77;;;;;;;;;;8329276;28;20045;-87
2022/10/08 02:37:14;;;;;;;28.42;12.52;;;;;;;;;;8336863;28;20119;-87
2022/10/08 02:41:19;;;;;;;22.45;11.43;;;;;;;;;;8334139;28;20071;-88
2022/10/08 02:45:26;;;;;;;26.05;12.07;;;;;;;;;;8333322;28;20069;-88
2022/10/08 02:49:31;;;;;;;32.40;13.15;;;;;;;;;;8329210;28;20046;-88
2022/10/08 02:53:38;;;;;;;26.05;12.15;;;;;;;;;;8328924;28;20045;-88
2022/10/08 02:57:45;;;;;;;30.50;14.45;;;;;;;;;;8329292;28;20045;-87
2022/10/08 03:01:51;;;;;;;30.38;13.55;;;;;;;;;;8328752;28;20053;-88
2022/10/08 03:05:55;;;;;;;26.42;13.10;;;;;;;;;;8328970;28;20507;-87
2022/10/08 03:10:04;;;;;;;51.42;22.27;;;;;;;;;;8328815;28;20045;-88
2022/10/08 03:14:10;;;;;;;62.47;29.13;;;;;;;;;;8328591;28;20143;-89
2022/10/08 03:18:13;;;;;;;34.47;17.83;;;;;;;;;;8328768;28;20049;-89
2022/10/08 03:22:18;;;;;;;32.97;15.88;;;;;;;;;;8329082;28;20124;-87
2022/10/08 03:26:22;;;;;;;32.30;16.15;;;;;;;;;;8334607;28;20405;-87
2022/10/08 03:30:25;;;;;;;54.15;23.20;;;;;;;;;;8334460;28;20054;-87
2022/10/08 03:34:27;;;;;;;32.83;17.08;;;;;;;;;;8334285;28;20068;-88
2022/10/08 03:38:30;;;;;;;28.92;15.15;;;;;;;;;;8334180;28;20408;-87
2022/10/08 03:42:34;;;;;;;29.35;14.82;;;;;;;;;;8334070;28;20057;-87
2022/10/08 03:46:36;;;;;;;26.90;14.43;;;;;;;;;;8334079;28;20048;-87
2022/10/08 03:50:38;;;;;;;30.70;13.05;;;;;;;;;;8333734;28;20044;-89
2022/10/08 03:54:41;;;;;;;26.00;13.25;;;;;;;;;;8334618;28;20484;-86
2022/10/08 03:58:45;;;;;;;30.00;14.02;;;;;;;;;;8346478;28;20195;-89
2022/10/08 04:02:50;;;;;;;30.52;16.20;;;;;;;;;;8341340;28;20051;-86
2022/10/08 04:06:53;;;;;;;29.38;16.48;;;;;;;;;;8352320;28;20123;-88
2022/10/08 04:10:56;;;;;;;34.00;16.75;;;;;;;;;;8333197;28;20079;-88
2022/10/08 04:14:59;;;;;;;38.08;16.73;;;;;;;;;;8333249;28;20049;-87
2022/10/08 04:19:02;;;;;;;28.20;15.70;;;;;;;;;;8333102;28;20099;-88
2022/10/08 04:23:04;;;;;;;29.75;16.92;;;;;;;;;;8333105;28;20464;-88
2022/10/08 04:27:07;;;;;;;37.67;20.83;;;;;;;;;;8332752;28;20042;-88
2022/10/08 04:31:15;;;;;;;56.72;30.30;;;;;;;;;;8332495;28;20047;-87
2022/10/08 04:35:17;;;;;;;61.25;29.40;;;;;;;;;;8331572;28;20048;-88
2022/10/08 04:39:20;;;;;;;29.52;15.13;;;;;;;;;;8331978;28;20412;-88
2022/10/08 04:43:22;;;;;;;28.00;14.98;;;;;;;;;;8332245;28;20481;-87
2022/10/08 04:47:26;;;;;;;39.28;17.00;;;;;;;;;;8332330;28;20569;-88
2022/10/08 04:51:28;;;;;;;34.95;17.83;;;;;;;;;;8345790;28;20502;-87
2022/10/08 04:55:31;;;;;;;37.47;19.25;;;;;;;;;;8340575;28;20448;-87
2022/10/08 04:59:34;;;;;;;58.83;23.45;;;;;;;;;;8339572;28;20396;-86
2022/10/08 05:03:40;;;;;;;75.25;33.17;;;;;;;;;;8345710;28;20067;-87
2022/10/08 05:07:43;;;;;;;52.17;22.90;;;;;;;;;;8343843;28;20496;-86
2022/10/08 05:11:45;;;;;;;53.55;25.92;;;;;;;;;;8330805;28;20049;-88
2022/10/08 05:15:48;;;;;;;36.05;17.80;;;;;;;;;;8331469;28;20042;-89
2022/10/08 05:19:52;;;;;;;37.25;17.27;;;;;;;;;;8330596;28;20053;-87
2022/10/08 05:23:56;;;;;;;35.42;20.13;;;;;;;;;;8344275;28;20045;-87
2022/10/08 05:27:59;;;;;;;105.10;47.85;;;;;;;;;;8338605;28;20045;-87
2022/10/08 05:32:02;;;;;;;44.30;19.50;;;;;;;;;;8334055;28;20049;-87
2022/10/08 05:36:07;;;;;;;38.85;16.75;;;;;;;;;;8329791;28;20045;-89
2022/10/08 05:40:11;;;;;;;71.97;30.20;;;;;;;;;;8330111;28;20050;-90
2022/10/08 05:44:13;;;;;;;86.80;43.03;;;;;;;;;;8330434;28;20049;-87
2022/10/08 05:48:16;;;;;;;34.63;16.63;;;;;;;;;;8342533;28;20516;-88
2022/10/08 05:52:19;;;;;;;43.58;23.10;;;;;;;;;;8329715;28;20132;-88
2022/10/08 05:56:23;;;;;;;43.40;22.23;;;;;;;;;;8329749;28;20037;-88
2022/10/08 06:00:26;;;;;;;45.70;22.30;;;;;;;;;;8337182;28;20049;-87
2022/10/08 06:04:28;;;;;;;31.02;17.75;;;;;;;;;;8343929;28;20053;-88
2022/10/08 06:08:33;;;;;;;32.72;20.52;;;;;;;;;;8342752;28;20045;-89
2022/10/08 06:12:35;;;;;;;28.15;16.92;;;;;;;;;;8330008;28;20049;-90
2022/10/08 06:16:38;;;;;;;21.92;13.70;;;;;;;;;;8329696;28;20123;-89
2022/10/08 06:20:40;;;;;;;18.77;11.82;;;;;;;;;;8329584;28;20056;-88
2022/10/08 06:24:49;;;;;;;17.45;11.93;;;;;;;;;;8327571;28;20068;-89
2022/10/08 06:29:12;;;;;;;16.60;10.93;;;;;;;;;;8326977;28;20049;-89
2022/10/08 06:33:18;;;;;;;14.57;9.80;;;;;;;;;;8334380;28;20061;-90
2022/10/08 06:37:32;;;;;;;12.27;8.75;;;;;;;;;;8353257;28;20404;-90
2022/10/08 06:41:35;;;;;;;13.35;11.13;;;;;;;;;;8292659;28;20064;-90
2022/10/08 06:45:46;;;;;;;12.27;9.00;;;;;;;;;;8306213;28;20049;-91
2022/10/08 06:50:19;;;;;;;14.75;9.82;;;;;;;;;;8321435;28;20049;-87
2022/10/08 06:54:38;;;;;;;12.85;9.35;;;;;;;;;;8306567;28;20049;-87
2022/10/08 06:58:56;;;;;;;14.00;9.27;;;;;;;;;;8310118;28;20558;-90
2022/10/08 07:03:03;;;;;;;16.38;11.63;;;;;;;;;;8311337;28;20050;-90
2022/10/08 07:07:13;;;;;;;16.15;11.10;;;;;;;;;;8320193;28;20049;-89
2022/10/08 07:11:38;;;;;;;15.30;10.95;;;;;;;;;;8326108;28;20251;-91
2022/10/08 07:15:48;;;;;;;18.15;10.48;;;;;;;;;;8329355;28;20052;-91
2022/10/08 07:19:51;;;;;;;12.80;9.45;;;;;;;;;;8321028;28;20049;-87
2022/10/08 07:23:53;;;;;;;14.70;9.48;;;;;;;;;;8318444;28;20038;-90
2022/10/08 07:27:56;;;;;;;13.95;10.27;;;;;;;;;;8311194;28;20046;-91
2022/10/08 07:32:00;;;;;;;19.40;13.55;;;;;;;;;;8321456;28;20452;-91
2022/10/08 07:36:10;;;;;;;15.35;11.07;;;;;;;;;;8314105;28;20056;-89
2022/10/08 07:40:12;;;;;;;14.07;11.48;;;;;;;;;;8316782;28;20069;-89
2022/10/08 07:44:16;;;;;;;12.48;9.88;;;;;;;;;;8352813;28;20049;-90
2022/10/08 07:48:21;;;;;;;13.98;9.55;;;;;;;;;;8355816;28;20077;-91
2022/10/08 07:52:27;;;;;;;12.77;8.68;;;;;;;;;;8346982;28;20100;-91
2022/10/08 07:56:31;;;;;;;15.23;8.82;;;;;;;;;;8349793;28;20057;-89
2022/10/08 08:00:34;;;;;;;11.95;8.18;;;;;;;;;;8344341;28;20049;-90
2022/10/08 08:04:38;;;;;;;15.10;9.77;;;;;;;;;;8356891;28;20079;-89
2022/10/08 08:08:49;;;;;;;14.10;10.50;;;;;;;;;;8345179;28;20631;-88
2022/10/08 08:13:14;;;;;;;14.02;9.02;;;;;;;;;;8359631;28;20488;-90
2022/10/08 08:17:31;;;;;;;11.52;8.02;;;;;;;;;;8340103;28;20130;-89
2022/10/08 08:22:01;;;;;;;11.75;7.47;;;;;;;;;;8348825;28;20068;-90
2022/10/08 08:26:19;;;;;;;10.80;7.45;;;;;;;;;;8290286;28;20050;-89
2022/10/08 08:30:33;;;;;;;13.02;7.30;;;;;;;;;;8340182;28;20055;-91
2022/10/08 08:34:47;;;;;;;13.30;6.93;;;;;;;;;;8339704;28;20605;-92
2022/10/08 08:39:02;;;;;;;10.10;7.70;;;;;;;;;;8344610;28;20045;-92
2022/10/08 08:43:14;;;;;;;12.73;7.68;;;;;;;;;;8342135;28;20045;-91
2022/10/08 08:47:24;;;;;;;11.25;7.43;;;;;;;;;;8342555;28;20054;-92
2022/10/08 08:51:42;;;;;;;12.00;7.95;;;;;;;;;;8373212;28;20040;-90
2022/10/08 08:56:13;;;;;;;11.65;7.50;;;;;;;;;;8361328;28;20044;-90
2022/10/08 09:00:42;;;;;;;9.48;7.55;;;;;;;;;;8331978;28;20057;-90
2022/10/08 09:05:01;;;;;;;12.32;7.78;;;;;;;;;;8319929;28;20045;-90
2022/10/08 09:09:21;;;;;;;11.03;8.30;;;;;;;;;;8288420;28;20489;-92
2022/10/08 09:13:41;;;;;;;13.23;7.40;;;;;;;;;;8318354;28;20398;-91
2022/10/08 09:17:55;;;;;;;10.32;7.90;;;;;;;;;;8334553;28;20151;-91
2022/10/08 09:22:01;;;;;;;12.93;7.57;;;;;;;;;;8359542;28;20412;-89
2022/10/08 09:26:16;;;;;;;14.20;8.20;;;;;;;;;;8354614;28;20443;-90
2022/10/08 09:30:40;;;;;;;14.13;7.78;;;;;;;;;;8339426;28;20052;-91
2022/10/08 09:35:11;;;;;;;10.35;7.60;;;;;;;;;;8345591;28;20453;-90
2022/10/08 09:39:26;;;;;;;11.88;7.30;;;;;;;;;;8348784;28;20092;-90
2022/10/08 09:43:42;;;;;;;11.57;7.40;;;;;;;;;;8347750;28;20051;-91
2022/10/08 09:48:17;;;;;;;11.70;7.70;;;;;;;;;;8368325;28;20048;-89
2022/10/08 09:52:27;;;;;;;9.02;7.13;;;;;;;;;;8365866;28;20049;-91
2022/10/08 09:56:45;;;;;;;8.73;7.70;;;;;;;;;;8333060;28;20065;-91
2022/10/08 10:00:58;;;;;;;9.65;7.63;;;;;;;;;;8343712;28;20049;-88
2022/10/08 10:05:25;;;;;;;11.95;8.10;;;;;;;;;;8337294;28;20048;-89
2022/10/08 10:09:46;;;;;;;12.98;8.45;;;;;;;;;;8342488;28;20140;-87
2022/10/08 10:13:51;;;;;;;13.65;8.10;;;;;;;;;;8344496;28;20454;-88
2022/10/08 10:18:01;;;;;;;12.55;8.25;;;;;;;;;;8331911;28;20053;-90
2022/10/08 10:22:18;;;;;;;13.25;7.97;;;;;;;;;;8339138;28;20107;-90
2022/10/08 10:26:38;;;;;;;12.55;7.85;;;;;;;;;;8345344;28;20049;-90
2022/10/08 10:30:59;;;;;;;11.68;7.78;;;;;;;;;;8331954;28;20053;-88
2022/10/08 10:35:20;;;;;;;15.65;8.05;;;;;;;;;;8350651;28;20051;-88
2022/10/08 10:39:44;;;;;;;14.80;7.68;;;;;;;;;;8364178;28;20412;-89
2022/10/08 10:43:59;;;;;;;12.13;7.03;;;;;;;;;;8370134;28;20072;-90
2022/10/08 10:48:07;;;;;;;13.00;7.60;;;;;;;;;;8355157;28;20476;-90
2022/10/08 10:52:33;;;;;;;10.70;7.50;;;;;;;;;;8341026;28;20473;-91
2022/10/08 10:56:41;;;;;;;10.98;7.63;;;;;;;;;;8334707;28;20141;-89
2022/10/08 11:00:55;;;;;;;10.85;7.60;;;;;;;;;;8334598;28;20148;-89
2022/10/08 11:05:07;;;;;;;10.20;7.95;;;;;;;;;;8332326;28;20049;-90
2022/10/08 11:09:20;;;;;;;13.82;7.82;;;;;;;;;;8335541;28;20121;-90
2022/10/08 11:13:39;;;;;;;13.27;7.90;;;;;;;;;;8317777;28;20063;-90
2022/10/08 11:17:55;;;;;;;12.60;8.38;;;;;;;;;;8334798;28;20041;-90
2022/10/08 11:22:04;;;;;;;13.57;7.78;;;;;;;;;;8335161;28;20796;-89
2022/10/08 11:26:13;;;;;;;11.75;8.55;;;;;;;;;;8334866;28;20037;-89
2022/10/08 11:30:20;;;;;;;12.38;8.25;;;;;;;;;;8334653;28;20046;-90
2022/10/08 11:34:28;;;;;;;10.60;7.68;;;;;;;;;;8334551;28;20045;-91
2022/10/08 11:38:38;;;;;;;15.65;8.32;;;;;;;;;;8348526;28;20072;-91
2022/10/08 11:42:49;;;;;;;11.60;8.20;;;;;;;;;;8348392;28;20832;-89
2022/10/08 11:46:53;;;;;;;10.38;8.05;;;;;;;;;;8334718;28;20045;-90
2022/10/08 11:51:30;;;;;;;12.65;8.10;;;;;;;;;;8334078;28;20090;-90
2022/10/08 11:55:34;;;;;;;12.13;8.13;;;;;;;;;;8342087;28;20494;-90
2022/10/08 11:59:39;;;;;;;9.50;7.50;;;;;;;;;;8352695;28;20747;-91
2022/10/08 12:03:44;;;;;;;16.65;8.50;;;;;;;;;;8361531;28;20041;-90
2022/10/08 12:07:52;;;;;;;12.52;8.50;;;;;;;;;;8342984;28;20056;-90
2022/10/08 12:11:55;;;;;;;14.02;7.75;;;;;;;;;;8339221;28;20087;-90
2022/10/08 12:16:03;;;;;;;18.50;12.32;;;;;;;;;;8339343;28;20518;-91
2022/10/08 12:20:21;;;;;;;14.15;9.25;;;;;;;;;;8361583;28;20087;-89
2022/10/08 12:24:52;;;;;;;13.30;8.75;;;;;;;;;;8348191;28;20049;-91
2022/10/08 12:28:54;;;;;;;12.18;8.32;;;;;;;;;;8362199;28;20049;-90
2022/10/08 12:32:58;;;;;;;11.48;8.32;;;;;;;;;;8361207;28;20541;-89
2022/10/08 12:37:11;;;;;;;11.98;8.15;;;;;;;;;;8352895;28;20068;-89
2022/10/08 12:41:21;;;;;;;13.05;8.20;;;;;;;;;;8342878;28;20100;-90
2022/10/08 12:45:28;;;;;;;10.45;7.65;;;;;;;;;;8345535;28;20461;-89
2022/10/08 12:49:37;;;;;;;13.23;7.78;;;;;;;;;;8332491;28;20095;-90
2022/10/08 12:53:45;;;;;;;10.38;7.90;;;;;;;;;;8332202;28;20099;-90
2022/10/08 12:57:49;;;;;;;13.48;8.15;;;;;;;;;;8331657;28;20041;-90
2022/10/08 13:01:53;;;;;;;10.57;7.60;;;;;;;;;;8332176;28;20076;-90
2022/10/08 13:05:57;;;;;;;10.43;7.53;;;;;;;;;;8338446;28;20495;-90
2022/10/08 13:10:03;;;;;;;12.52;7.45;;;;;;;;;;8353676;28;20127;-90
2022/10/08 13:14:05;;;;;;;12.35;8.02;;;;;;;;;;8334346;28;20041;-91
2022/10/08 13:18:36;;;;;;;11.02;7.55;;;;;;;;;;8335204;28;20501;-90
2022/10/08 13:22:45;;;;;;;11.18;8.20;;;;;;;;;;8339930;28;20610;-89
2022/10/08 13:26:57;;;;;;;9.75;7.07;;;;;;;;;;8351886;28;20049;-89
2022/10/08 13:31:31;;;;;;;11.70;9.13;;;;;;;;;;8366154;28;20048;-90
2022/10/08 13:35:44;;;;;;;16.65;9.45;;;;;;;;;;8349789;28;20487;-92
2022/10/08 13:40:39;;;;;;;13.60;8.85;;;;;;;;;;8352067;28;20056;-92
2022/10/08 13:45:01;;;;;;;;;;;;;;;;;;8308750;28;20058;-90
2022/10/08 13:49:22;;;;;;;14.00;9.35;;;;;;;;;;8320771;28;19930;-91
2022/10/08 13:53:26;;;;;;;16.60;10.38;;;;;;;;;;8323094;28;20049;-91
2022/10/08 13:57:29;;;;;;;14.68;9.40;;;;;;;;;;8347558;28;20048;-91
2022/10/08 14:01:33;;;;;;;15.00;9.65;;;;;;;;;;8334495;28;20047;-91
2022/10/08 14:05:47;;;;;;;13.82;10.95;;;;;;;;;;8312934;28;20065;-90
2022/10/08 14:09:55;;;;;;;14.82;10.43;;;;;;;;;;8317180;28;20049;-90
2022/10/08 14:13:58;;;;;;;15.82;10.32;;;;;;;;;;8314745;28;20180;-88
2022/10/08 14:18:02;;;;;;;16.27;12.00;;;;;;;;;;8326601;28;20075;-93
2022/10/08 14:22:04;;;;;;;17.80;12.07;;;;;;;;;;8319948;28;20567;-90
2022/10/08 14:26:13;;;;;;;16.48;11.18;;;;;;;;;;8310188;28;20175;-93
2022/10/08 14:30:20;;;;;;;18.45;11.30;;;;;;;;;;8315942;28;20042;-90
2022/10/08 14:34:28;;;;;;;16.50;11.38;;;;;;;;;;8326442;28;20091;-92
2022/10/08 14:38:35;;;;;;;19.20;12.25;;;;;;;;;;8312519;28;20047;-92
2022/10/08 14:42:38;;;;;;;14.25;10.90;;;;;;;;;;8269618;28;20137;-92
2022/10/08 14:46:42;;;;;;;17.10;11.40;;;;;;;;;;8274977;28;20466;-90
2022/10/08 14:50:49;;;;;;;19.35;11.95;;;;;;;;;;8273113;28;20126;-92
2022/10/08 14:54:54;;;;;;;16.30;12.02;;;;;;;;;;8274621;28;20042;-89
2022/10/08 14:59:17;;;;;;;19.10;12.25;;;;;;;;;;8280338;23;20473;-92
2022/10/08 15:03:23;;;;;;;18.40;11.20;;;;;;;;;;8559115;23;20577;-93
2022/10/08 15:08:01;;;;;;;20.95;13.07;;;;;;;;;;8289972;28;20041;-92
2022/10/08 15:12:41;;;;;;;15.40;11.23;;;;;;;;;;8296591;28;20121;-91
2022/10/08 15:16:56;;;;;;;20.65;12.10;;;;;;;;;;8301786;28;20049;-90
2022/10/08 15:25:26;;;;;;;17.95;11.85;;;;;;;;;;8368673;23;20079;-92
2022/10/08 15:29:54;;;;;;;24.20;13.15;;;;;;;;;;8308067;28;20050;-94
2022/10/08 15:34:01;;;;;;;15.40;11.77;;;;;;;;;;8302463;28;20119;-90
2022/10/08 15:38:08;;;;;;;16.48;12.43;;;;;;;;;;8308747;28;20493;-92
2022/10/08 15:47:13;;;;;;;20.98;14.45;;;;;;;;;;8313602;23;20053;-92
2022/10/08 16:01:28;;;;;;;21.52;14.68;;;;;;;;;;8668164;23;20560;-93
2022/10/08 16:05:39;;;;;;;24.70;15.73;;;;;;;;;;8317744;28;20049;-91
2022/10/08 16:09:51;;;;;;;21.27;15.65;;;;;;;;;;8307930;28;20149;-92
2022/10/08 16:14:07;;;;;;;19.25;14.95;;;;;;;;;;8306856;28;20041;-92
2022/10/08 16:18:13;;;;;;;22.40;15.73;;;;;;;;;;8335990;28;20081;-91
2022/10/08 16:22:35;;;;;;;22.08;16.02;;;;;;;;;;8312697;28;20054;-89
2022/10/08 16:26:47;;;;;;;24.17;17.85;;;;;;;;;;8313577;28;20057;-90
2022/10/08 16:35:50;;;;;;;39.03;25.85;;;;;;;;;;8299105;28;20115;-90
2022/10/08 16:40:14;;;;;;;29.40;18.33;;;;;;;;;;8307967;28;20048;-89
2022/10/08 16:44:31;;;;;;;;;;;;;;;;;;8302384;28;20077;-89
2022/10/08 16:48:52;;;;;;;53.60;29.77;;;;;;;;;;8277966;28;20332;-91
2022/10/08 16:52:54;;;;;;;60.72;34.50;;;;;;;;;;8307235;28;20064;-90
2022/10/08 16:56:59;;;;;;;55.47;32.80;;;;;;;;;;8306604;28;20046;-91
2022/10/08 17:01:07;;;;;;;59.40;29.65;;;;;;;;;;8311379;28;20080;-93
2022/10/08 17:05:10;;;;;;;53.08;30.58;;;;;;;;;;8307020;28;20501;-91
2022/10/08 17:09:13;;;;;;;61.47;32.65;;;;;;;;;;8308207;28;20048;-91
2022/10/08 17:13:18;;;;;;;56.72;32.95;;;;;;;;;;8297103;28;20061;-92
2022/10/08 17:17:21;;;;;;;91.35;46.25;;;;;;;;;;8307151;28;20400;-90
2022/10/08 17:21:23;;;;;;;242.13;121.40;;;;;;;;;;8309789;28;20057;-91
2022/10/08 17:25:26;;;;;;;98.47;44.63;;;;;;;;;;8314361;28;20390;-90
2022/10/08 17:29:30;;;;;;;64.18;32.53;;;;;;;;;;8320076;28;20615;-91
2022/10/08 17:33:34;;;;;;;161.88;89.82;;;;;;;;;;8310760;28;20123;-89
2022/10/08 17:37:37;;;;;;;81.30;43.80;;;;;;;;;;8310843;28;20045;-90
2022/10/08 17:41:41;;;;;;;70.75;36.60;;;;;;;;;;8319052;28;20049;-91
2022/10/08 17:45:46;;;;;;;114.70;60.72;;;;;;;;;;8305733;28;20045;-91
2022/10/08 17:49:48;;;;;;;80.53;46.42;;;;;;;;;;8311503;28;20124;-91
2022/10/08 17:53:53;;;;;;;74.50;42.55;;;;;;;;;;8325733;28;20050;-91
2022/10/08 17:57:57;;;;;;;64.13;37.35;;;;;;;;;;8290608;28;20057;-90
2022/10/08 18:02:02;;;;;;;48.67;30.20;;;;;;;;;;8318583;28;20041;-89
2022/10/08 18:06:07;;;;;;;40.17;25.80;;;;;;;;;;8306137;28;20045;-91
2022/10/08 18:10:10;;;;;;;68.53;32.15;;;;;;;;;;8308730;28;20128;-91
2022/10/08 18:14:16;;;;;;;57.28;29.30;;;;;;;;;;8300214;28;20042;-88
2022/10/08 18:18:19;;;;;;;90.35;35.88;;;;;;;;;;8300646;28;20042;-89
2022/10/08 18:22:23;;;;;;;66.15;34.28;;;;;;;;;;8296832;28;20042;-90
2022/10/08 18:26:29;;;;;;;46.00;27.60;;;;;;;;;;8299571;28;20068;-91
2022/10/08 18:30:35;;;;;;;50.88;29.50;;;;;;;;;;8304547;28;20092;-90
2022/10/08 18:34:39;;;;;;;43.25;26.83;;;;;;;;;;8320019;28;20049;-89
2022/10/08 18:38:43;;;;;;;40.60;25.98;;;;;;;;;;8315487;28;20091;-88
2022/10/08 18:42:46;;;;;;;44.25;25.20;;;;;;;;;;8306525;28;20041;-90
2022/10/08 18:46:49;;;;;;;46.70;25.38;;;;;;;;;;8313232;28;20096;-89
2022/10/08 18:50:53;;;;;;;37.90;23.33;;;;;;;;;;8295051;28;20055;-89
2022/10/08 18:54:56;;;;;;;41.28;24.60;;;;;;;;;;8298936;28;20057;-89
2022/10/08 18:59:00;;;;;;;42.75;24.23;;;;;;;;;;8302176;28;20054;-89
2022/10/08 19:03:03;;;;;;;46.08;25.98;;;;;;;;;;8312361;28;20049;-89
2022/10/08 19:07:07;;;;;;;44.80;26.70;;;;;;;;;;8306224;28;20045;-89
2022/10/08 19:11:11;;;;;;;44.85;26.50;;;;;;;;;;8302852;28;20486;-89
2022/10/08 19:15:14;;;;;;;39.63;24.67;;;;;;;;;;8302331;28;20042;-89
2022/10/08 19:19:18;;;;;;;43.97;25.67;;;;;;;;;;8302390;28;20060;-89
2022/10/08 19:23:22;;;;;;;46.38;25.90;;;;;;;;;;8302404;28;20132;-90
2022/10/08 19:27:25;;;;;;;51.00;28.13;;;;;;;;;;8302189;28;20042;-90
2022/10/08 19:31:30;;;;;;;59.50;30.35;;;;;;;;;;8302116;28;20081;-90
2022/10/08 19:35:33;;;;;;;53.95;29.13;;;;;;;;;;8301953;28;20149;-90
2022/10/08 19:39:37;;;;;;;61.88;28.70;;;;;;;;;;8301714;28;20050;-90
2022/10/08 19:43:42;;;;;;;49.67;27.67;;;;;;;;;;8301749;28;20076;-90
2022/10/08 19:47:45;;;;;;;62.17;30.52;;;;;;;;;;8301563;28;20137;-89
2022/10/08 19:51:48;;;;;;;63.95;29.90;;;;;;;;;;8301701;28;20124;-90
2022/10/08 19:55:53;;;;;;;70.70;33.38;;;;;;;;;;8301423;28;20054;-88
2022/10/08 19:59:55;;;;;;;352.17;36.20;;;;;;;;;;8301338;28;20057;-89
2022/10/08 20:03:59;;;;;;;139.45;29.13;;;;;;;;;;8314830;28;20045;-90
2022/10/08 20:08:01;;;;;;;76.15;30.08;;;;;;;;;;8301332;28;20494;-89
2022/10/08 20:12:06;;;;;;;63.05;28.25;;;;;;;;;;8301051;28;20056;-90
2022/10/08 20:16:11;;;;;;;71.00;32.72;;;;;;;;;;8301111;28;20042;-90
2022/10/08 20:20:13;;;;;;;67.45;33.78;;;;;;;;;;8300791;28;20084;-90
2022/10/08 20:24:17;;;;;;;66.65;31.85;;;;;;;;;;8300611;28;20046;-90
2022/10/08 20:28:21;;;;;;;74.82;34.50;;;;;;;;;;8300553;28;20544;-90
2022/10/08 20:32:23;;;;;;;66.80;32.90;;;;;;;;;;8300390;28;20056;-89
2022/10/08 20:36:27;;;;;;;61.00;30.15;;;;;;;;;;8300061;28;20052;-88
2022/10/08 20:40:29;;;;;;;65.53;30.52;;;;;;;;;;8300084;28;20049;-88
2022/10/08 20:44:33;;;;;;;58.90;29.02;;;;;;;;;;8299831;28;20057;-89
2022/10/08 20:48:37;;;;;;;56.22;28.55;;;;;;;;;;8299855;28;20038;-89
2022/10/08 20:52:40;;;;;;;58.33;29.38;;;;;;;;;;8299819;28;20041;-89
2022/10/08 20:56:43;;;;;;;38.38;20.60;;;;;;;;;;8299618;28;20042;-90
2022/10/08 21:00:46;;;;;;;36.55;18.67;;;;;;;;;;8299108;28;20049;-88
2022/10/08 21:04:49;;;;;;;28.38;16.92;;;;;;;;;;8313459;28;20489;-90
2022/10/08 21:08:54;;;;;;;32.28;18.10;;;;;;;;;;8299427;28;20073;-90
2022/10/08 21:12:56;;;;;;;25.90;15.05;;;;;;;;;;8299561;28;20087;-90
2022/10/08 21:17:00;;;;;;;30.08;15.88;;;;;;;;;;8298045;28;20050;-88
2022/10/08 21:21:04;;;;;;;29.00;15.07;;;;;;;;;;8298511;28;20052;-88
2022/10/08 21:25:07;;;;;;;28.75;15.57;;;;;;;;;;8298714;28;20065;-89
2022/10/08 21:29:11;;;;;;;28.17;15.68;;;;;;;;;;8298512;28;20045;-88
2022/10/08 21:33:15;;;;;;;28.00;16.13;;;;;;;;;;8298487;28;20464;-90
2022/10/08 21:37:18;;;;;;;31.65;15.07;;;;;;;;;;8298273;28;20200;-90
2022/10/08 21:41:23;;;;;;;35.28;16.55;;;;;;;;;;8298288;28;20046;-89
2022/10/08 21:45:25;;;;;;;36.35;16.33;;;;;;;;;;8298103;28;20482;-89
2022/10/08 21:49:29;;;;;;;38.10;16.33;;;;;;;;;;8297888;28;20073;-90
2022/10/08 21:53:33;;;;;;;31.63;14.38;;;;;;;;;;8297938;28;20434;-90
2022/10/08 21:57:35;;;;;;;34.13;15.00;;;;;;;;;;8297776;28;20133;-90
2022/10/08 22:01:40;;;;;;;28.95;15.35;;;;;;;;;;8297399;28;20054;-89
2022/10/08 22:05:51;;;;;;;27.65;15.13;;;;;;;;;;8311420;28;20059;-89
2022/10/08 22:09:54;;;;;;;28.92;15.55;;;;;;;;;;8297622;28;20050;-91
2022/10/08 22:13:56;;;;;;;26.58;14.90;;;;;;;;;;8297414;28;20053;-89
2022/10/08 22:17:58;;;;;;;29.77;15.73;;;;;;;;;;8297367;28;20042;-89
2022/10/08 22:22:02;;;;;;;31.35;16.48;;;;;;;;;;8297570;28;20596;-90
2022/10/08 22:26:07;;;;;;;34.58;15.85;;;;;;;;;;8297185;28;20181;-89
2022/10/08 22:30:10;;;;;;;44.53;18.13;;;;;;;;;;8297041;28;20050;-90
2022/10/08 22:34:13;;;;;;;41.22;17.63;;;;;;;;;;8296875;28;20054;-90
2022/10/08 22:38:16;;;;;;;41.78;18.65;;;;;;;;;;8296703;28;20133;-90
2022/10/08 22:42:19;;;;;;;46.35;19.95;;;;;;;;;;8296964;28;20414;-89
2022/10/08 22:46:23;;;;;;;48.90;19.45;;;;;;;;;;8296769;28;20488;-90
2022/10/08 22:50:26;;;;;;;44.38;17.73;;;;;;;;;;8296914;28;20042;-90
2022/10/08 22:54:30;;;;;;;43.92;17.13;;;;;;;;;;8296717;28;20046;-90
2022/10/08 22:58:32;;;;;;;39.83;16.67;;;;;;;;;;8296215;28;20065;-90
2022/10/08 23:02:35;;;;;;;43.17;16.95;;;;;;;;;;8302491;28;20124;-89
2022/10/08 23:06:37;;;;;;;29.95;15.45;;;;;;;;;;8303966;28;20050;-88
2022/10/08 23:10:41;;;;;;;27.13;14.07;;;;;;;;;;8296490;28;20050;-90
2022/10/08 23:14:44;;;;;;;32.63;15.52;;;;;;;;;;8296374;28;20133;-90
2022/10/08 23:18:51;;;;;;;31.25;14.90;;;;;;;;;;8296343;28;20065;-89
2022/10/08 23:22:54;;;;;;;32.50;14.20;;;;;;;;;;8296239;28;20045;-91
2022/10/08 23:26:57;;;;;;;32.20;13.90;;;;;;;;;;8296245;28;20128;-89
2022/10/08 23:31:05;;;;;;;27.35;14.48;;;;;;;;;;8296177;28;20057;-90
2022/10/08 23:35:08;;;;;;;23.10;11.85;;;;;;;;;;8295947;28;20049;-90
2022/10/08 23:39:13;;;;;;;26.30;13.38;;;;;;;;;;8296408;28;20056;-89
2022/10/08 23:43:17;;;;;;;30.20;13.98;;;;;;;;;;8309086;28;20049;-90
2022/10/08 23:47:19;;;;;;;28.55;12.68;;;;;;;;;;8310371;28;20048;-90
2022/10/08 23:51:23;;;;;;;21.38;11.18;;;;;;;;;;8301327;28;20053;-88
2022/10/08 23:55:25;;;;;;;22.13;10.90;;;;;;;;;;8305489;28;20054;-89
2022/10/08 23:59:29;;;;;;;26.55;11.48;;;;;;;;;;8306816;28;20081;-88
